地図

経路データ

SID SEASON NUMBER BASIN SUBBASIN NAME ISO_TIME NATURE LAT LON WMO_WIND WMO_PRES WMO_AGENCY TRACK_TYPE DIST2LAND LANDFALL IFLAG USA_AGENCY USA_ATCF_ID USA_LAT USA_LON USA_RECORD USA_STATUS USA_WIND USA_PRES USA_SSHS USA_R34_NE USA_R34_SE USA_R34_SW USA_R34_NW USA_R50_NE USA_R50_SE USA_R50_SW USA_R50_NW USA_R64_NE USA_R64_SE USA_R64_SW USA_R64_NW USA_POCI USA_ROCI USA_RMW USA_EYE TOKYO_LAT TOKYO_LON TOKYO_GRADE TOKYO_WIND TOKYO_PRES TOKYO_R50_DIR TOKYO_R50_LONG TOKYO_R50_SHORT TOKYO_R30_DIR TOKYO_R30_LONG TOKYO_R30_SHORT TOKYO_LAND CMA_LAT CMA_LON CMA_CAT CMA_WIND CMA_PRES HKO_LAT HKO_LON HKO_CAT HKO_WIND HKO_PRES NEWDELHI_LAT NEWDELHI_LON NEWDELHI_GRADE NEWDELHI_WIND NEWDELHI_PRES NEWDELHI_CI NEWDELHI_DP NEWDELHI_POCI REUNION_LAT REUNION_LON REUNION_TYPE REUNION_WIND REUNION_PRES REUNION_TNUM REUNION_CI REUNION_RMW REUNION_R34_NE REUNION_R34_SE REUNION_R34_SW REUNION_R34_NW REUNION_R50_NE REUNION_R50_SE REUNION_R50_SW REUNION_R50_NW REUNION_R64_NE REUNION_R64_SE REUNION_R64_SW REUNION_R64_NW BOM_LAT BOM_LON BOM_TYPE BOM_WIND BOM_PRES BOM_TNUM BOM_CI BOM_RMW BOM_R34_NE BOM_R34_SE BOM_R34_SW BOM_R34_NW BOM_R50_NE BOM_R50_SE BOM_R50_SW BOM_R50_NW BOM_R64_NE BOM_R64_SE BOM_R64_SW BOM_R64_NW BOM_ROCI BOM_POCI BOM_EYE BOM_POS_METHOD BOM_PRES_METHOD NADI_LAT NADI_LON NADI_CAT NADI_WIND NADI_PRES WELLINGTON_LAT WELLINGTON_LON WELLINGTON_WIND WELLINGTON_PRES DS824_LAT DS824_LON DS824_STAGE DS824_WIND DS824_PRES TD9636_LAT TD9636_LON TD9636_STAGE TD9636_WIND TD9636_PRES TD9635_LAT TD9635_LON TD9635_WIND TD9635_PRES TD9635_ROCI NEUMANN_LAT NEUMANN_LON NEUMANN_CLASS NEUMANN_WIND NEUMANN_PRES MLC_LAT MLC_LON MLC_CLASS MLC_WIND MLC_PRES USA_GUST BOM_GUST BOM_GUST_PER REUNION_GUST REUNION_GUST_PER USA_SEAHGT USA_SEARAD_NE USA_SEARAD_SE USA_SEARAD_SW USA_SEARAD_NW STORM_SPEED STORM_DIR
1928249N16150 1928 51 WP MM NOT_NAMED 1928-09-05 10:00:00 NR 16.2000 150.000 main 2069 2066 __________O___ -1 16.2000 150.000 7 7 273
1928249N16150 1928 51 WP MM NOT_NAMED 1928-09-05 12:00:00 NR 16.2105 149.759 main 2066 2061 __________P___ -1 16.2105 149.759 7 7 273
1928249N16150 1928 51 WP MM NOT_NAMED 1928-09-05 15:00:00 NR 16.2283 149.393 main 2061 2058 __________P___ -1 16.2283 149.393 7 7 273
1928249N16150 1928 51 WP MM NOT_NAMED 1928-09-05 18:00:00 NR 16.2521 149.020 main 2068 2065 __________P___ -1 16.2521 149.020 7 7 275
1928249N16150 1928 51 WP MM NOT_NAMED 1928-09-05 21:00:00 NR 16.2859 148.633 main 2065 2064 __________P___ -1 16.2859 148.633 7 8 275
1928249N16150 1928 51 WP MM NOT_NAMED 1928-09-05 22:00:00 NR 16.3000 148.500 main 2064 2063 __________O___ -1 16.3000 148.500 7 8 277
1928249N16150 1928 51 WP MM NOT_NAMED 1928-09-06 00:00:00 NR 16.3332 148.228 main 2063 2062 __________P___ -1 16.3332 148.228 7 8 278
1928249N16150 1928 51 WP MM NOT_NAMED 1928-09-06 03:00:00 NR 16.3957 147.807 main 2072 2072 __________P___ -1 16.3957 147.807 7 8 280
1928249N16150 1928 51 WP MM NOT_NAMED 1928-09-06 06:00:00 NR 16.4732 147.377 main 2083 2083 __________P___ -1 16.4732 147.377 7 8 282
1928249N16150 1928 51 WP MM NOT_NAMED 1928-09-06 09:00:00 NR 16.5658 146.944 main 2094 2094 __________P___ -1 16.5658 146.944 7 9 283
1928249N16150 1928 51 WP MM NOT_NAMED 1928-09-06 10:00:00 NR 16.6000 146.800 main 2094 2094 __________O___ -1 16.6000 146.800 7 8 284
1928249N16150 1928 51 WP MM NOT_NAMED 1928-09-06 12:00:00 NR 16.6691 146.519 main 2105 2105 __________P___ -1 16.6691 146.519 7 8 285
1928249N16150 1928 51 WP MM NOT_NAMED 1928-09-06 15:00:00 NR 16.7854 146.098 main 2113 2091 __________P___ -1 16.7854 146.098 7 8 287
1928249N16150 1928 51 WP MM NOT_NAMED 1928-09-06 18:00:00 NR 16.9142 145.674 main 2091 2048 __________P___ -1 16.9142 145.674 7 9 288
1928249N16150 1928 51 WP MM NOT_NAMED 1928-09-06 21:00:00 NR 17.0524 145.245 main 2048 2044 __________P___ -1 17.0524 145.245 7 9 289
1928249N16150 1928 51 WP MM NOT_NAMED 1928-09-06 22:00:00 NR 17.1000 145.100 main 2044 2020 __________O___ -1 17.1000 145.100 7 9 287
1928249N16150 1928 51 WP MM NOT_NAMED 1928-09-07 00:00:00 NR 17.1837 144.800 main 2020 1988 __________P___ -1 17.1837 144.800 7 9 287
1928249N16150 1928 51 WP MM NOT_NAMED 1928-09-07 03:00:00 NR 17.3155 144.344 main 1988 1951 __________P___ -1 17.3155 144.344 7 9 288
1928249N16150 1928 51 WP MM NOT_NAMED 1928-09-07 06:00:00 NR 17.4629 143.889 main 1951 1920 __________P___ -1 17.4629 143.889 7 9 290
1928249N16150 1928 51 WP MM NOT_NAMED 1928-09-07 09:00:00 NR 17.6353 143.444 main 1920 1906 __________P___ -1 17.6353 143.444 7 9 293
1928249N16150 1928 51 WP MM NOT_NAMED 1928-09-07 10:00:00 NR 17.7000 143.300 main 1906 1884 __________O___ -1 17.7000 143.300 7 9 296
1928249N16150 1928 51 WP MM NOT_NAMED 1928-09-07 12:00:00 NR 17.8411 143.009 main 1884 1838 __________P___ -1 17.8411 143.009 7 9 299
1928249N16150 1928 51 WP MM NOT_NAMED 1928-09-07 15:00:00 NR 18.0781 142.584 main 1838 1802 __________P___ -1 18.0781 142.584 7 9 302
1928249N16150 1928 51 WP MM NOT_NAMED 1928-09-07 18:00:00 NR 18.3370 142.183 main 1802 1757 __________P___ -1 18.3370 142.183 7 9 306
1928249N16150 1928 51 WP MM NOT_NAMED 1928-09-07 21:00:00 NR 18.6084 141.814 main 1757 1743 __________P___ -1 18.6084 141.814 7 9 308
1928249N16150 1928 51 WP MM NOT_NAMED 1928-09-07 22:00:00 NR 18.7000 141.700 main 1743 1715 __________O___ -1 18.7000 141.700 7 8 310
1928249N16150 1928 51 WP MM NOT_NAMED 1928-09-08 00:00:00 NR 18.8721 141.480 main 1715 1684 __________P___ -1 18.8721 141.480 7 8 312
1928249N16150 1928 51 WP MM NOT_NAMED 1928-09-08 03:00:00 NR 19.1367 141.181 main 1684 1643 __________P___ -1 19.1367 141.181 7 8 315
1928249N16150 1928 51 WP MM NOT_NAMED 1928-09-08 06:00:00 NR 19.4118 140.915 main 1643 1603 __________P___ -1 19.4118 140.915 7 7 320
1928249N16150 1928 51 WP MM NOT_NAMED 1928-09-08 09:00:00 NR 19.7003 140.675 main 1603 1588 __________P___ -1 19.7003 140.675 7 7 323
1928249N16150 1928 51 WP MM NOT_NAMED 1928-09-08 10:00:00 NR 19.8000 140.600 main 1588 1558 __________O___ -1 19.8000 140.600 7 7 323
1928249N16150 1928 51 WP MM NOT_NAMED 1928-09-08 12:00:00 NR 19.9973 140.436 main 1558 1518 __________P___ -1 19.9973 140.436 7 8 324
1928249N16150 1928 51 WP MM NOT_NAMED 1928-09-08 15:00:00 NR 20.3058 140.210 main 1518 1479 __________P___ -1 20.3058 140.210 7 8 328
1928249N16150 1928 51 WP MM NOT_NAMED 1928-09-08 18:00:00 NR 20.6321 140.011 main 1479 1430 __________P___ -1 20.6321 140.011 7 8 333
1928249N16150 1928 51 WP MM NOT_NAMED 1928-09-08 21:00:00 NR 20.9791 139.846 main 1430 1421 __________P___ -1 20.9791 139.846 7 8 337
1928249N16150 1928 51 WP MM NOT_NAMED 1928-09-08 22:00:00 NR 21.1000 139.800 main 1421 1397 __________O___ -1 21.1000 139.800 7 8 342
1928249N16150 1928 51 WP MM NOT_NAMED 1928-09-09 00:00:00 NR 21.3416 139.719 main 1397 1354 __________P___ -1 21.3416 139.719 7 8 346
1928249N16150 1928 51 WP MM NOT_NAMED 1928-09-09 03:00:00 NR 21.7228 139.628 main 1354 1315 __________P___ -1 21.7228 139.628 7 8 350
1928249N16150 1928 51 WP MM NOT_NAMED 1928-09-09 06:00:00 NR 22.1266 139.564 main 1315 1258 __________P___ -1 22.1266 139.564 7 8 353
1928249N16150 1928 51 WP MM NOT_NAMED 1928-09-09 09:00:00 NR 22.5529 139.515 main 1258 1248 __________P___ -1 22.5529 139.515 7 9 355
1928249N16150 1928 51 WP MM NOT_NAMED 1928-09-09 10:00:00 NR 22.7000 139.500 main 1248 1215 __________O___ -1 22.7000 139.500 7 9 354
1928249N16150 1928 51 WP MM NOT_NAMED 1928-09-09 12:00:00 NR 22.9943 139.458 main 1215 1159 __________P___ -1 22.9943 139.458 7 9 353
1928249N16150 1928 51 WP MM NOT_NAMED 1928-09-09 15:00:00 NR 23.4546 139.402 main 1159 1116 __________P___ -1 23.4546 139.402 7 10 354
1928249N16150 1928 51 WP MM NOT_NAMED 1928-09-09 18:00:00 NR 23.9346 139.353 main 1116 1060 __________P___ -1 23.9346 139.353 7 10 356
1928249N16150 1928 51 WP MM NOT_NAMED 1928-09-09 21:00:00 NR 24.4313 139.312 main 1060 1039 __________P___ -1 24.4313 139.312 7 10 355
1928249N16150 1928 51 WP MM NOT_NAMED 1928-09-09 22:00:00 NR 24.6000 139.300 main 1039 996 __________O___ -1 24.6000 139.300 7 11 355
1928249N16150 1928 51 WP MM NOT_NAMED 1928-09-10 00:00:00 NR 24.9543 139.272 main 996 940 __________P___ -1 24.9543 139.272 7 11 356
1928249N16150 1928 51 WP MM NOT_NAMED 1928-09-10 03:00:00 NR 25.4987 139.237 main 940 888 __________P___ -1 25.4987 139.237 7 11 357
1928249N16150 1928 51 WP MM NOT_NAMED 1928-09-10 06:00:00 NR 26.0365 139.212 main 888 836 __________P___ -1 26.0365 139.212 7 10 358
1928249N16150 1928 51 WP MM NOT_NAMED 1928-09-10 09:00:00 NR 26.5427 139.200 main 836 815 __________P___ -1 26.5427 139.200 7 10 0
1928249N16150 1928 51 WP MM NOT_NAMED 1928-09-10 10:00:00 NR 26.7000 139.200 main 815 785 __________O___ -1 26.7000 139.200 7 9 0
1928249N16150 1928 51 WP MM NOT_NAMED 1928-09-10 12:00:00 NR 26.9941 139.205 main 785 744 __________P___ -1 26.9941 139.205 7 8 2
1928249N16150 1928 51 WP MM NOT_NAMED 1928-09-10 15:00:00 NR 27.3917 139.223 main 744 708 __________P___ -1 27.3917 139.223 7 8 3
1928249N16150 1928 51 WP MM NOT_NAMED 1928-09-10 18:00:00 NR 27.7513 139.253 main 708 679 __________P___ -1 27.7513 139.253 7 7 5
1928249N16150 1928 51 WP MM NOT_NAMED 1928-09-10 21:00:00 NR 28.0893 139.288 main 679 669 __________P___ -1 28.0893 139.288 7 7 6
1928249N16150 1928 51 WP MM NOT_NAMED 1928-09-10 22:00:00 NR 28.2000 139.300 main 669 __________O___ -1 28.2000 139.300 7 7 9

デジタル台風データ・検索

IBTrACS Databaseについて

本データベースは、米国NOAAが公開する1842年以降の世界の熱帯低気圧のベストトラックデータアーカイブInternational Best Track Archive for Climate Stewardship (IBTrACS)を、ウェブで閲覧しやすい形式に変換したものです。

最終更新日:2021-10-08